Terminal Aerodrome Forecast
Issued by NWS Midland/Odessa, TX

Home | Current Version | Previous Version | Text Only | Print | Product List | Glossary On
Versions: 1 2 3 4 5 6 7 8 9 10 11 12 13 14 15 16 17
000
FTUS44 KMAF 181100
TAFMAF
TAF
KMAF 181136Z 1812/1912 14005KT P6SM FEW100 SCT250
     FM181700 23012G22KT P6SM FEW120
     FM190000 20010KT P6SM FEW120=

USA.gov is the U.S. government's official web portal to all federal, state and local government web resources and services.